Time;durP1;ratioP1;P1;durP2;ratioP2;P2;SDS_P1;SDS_P2;PMS_P1;PMS_P2;Temp;Humidity;BMP_temperature;BMP_pressure;BME280_temperature;BME280_humidity;BME280_pressure;Samples;Min_cycle;Max_cycle;Signal;HPM_P1;HPM_P2
2023/06/07 00:00:25;;;;;;;26.70;8.00;;;12.70;99.90;;;;;;5063461;28;20020;-67
2023/06/07 00:02:51;;;;;;;31.02;8.20;;;12.60;99.90;;;;;;5062251;28;20044;-67
2023/06/07 00:05:20;;;;;;;19.10;7.63;;;12.60;99.90;;;;;;5063711;28;20150;-67
2023/06/07 00:07:46;;;;;;;24.13;7.70;;;12.50;99.90;;;;;;5063278;28;20017;-68
2023/06/07 00:10:11;;;;;;;28.52;8.63;;;12.40;99.90;;;;;;5063861;28;20039;-67
2023/06/07 00:12:37;;;;;;;32.70;7.85;;;12.40;99.90;;;;;;5063489;28;20458;-67
2023/06/07 00:15:04;;;;;;;25.83;7.82;;;12.30;99.90;;;;;;5063448;28;20029;-67
2023/06/07 00:17:30;;;;;;;19.80;8.05;;;12.30;99.90;;;;;;5063526;28;20032;-68
2023/06/07 00:19:56;;;;;;;27.48;7.97;;;12.20;99.90;;;;;;5063148;28;20016;-67
2023/06/07 00:22:21;;;;;;;25.08;8.73;;;12.20;99.90;;;;;;5062375;28;20052;-68
2023/06/07 00:24:49;;;;;;;24.23;8.95;;;12.30;99.90;;;;;;5063547;28;20043;-67
2023/06/07 00:27:14;;;;;;;26.02;9.40;;;12.20;99.90;;;;;;5062938;28;20359;-67
2023/06/07 00:29:40;;;;;;;26.05;9.52;;;12.20;99.90;;;;;;5063101;28;20048;-67
2023/06/07 00:32:06;;;;;;;27.42;8.90;;;12.20;99.90;;;;;;5063320;28;20037;-68
2023/06/07 00:34:39;;;;;;;26.60;9.02;;;12.20;99.90;;;;;;5063211;28;20084;-68
2023/06/07 00:37:04;;;;;;;24.27;8.57;;;12.20;99.90;;;;;;5061887;28;20461;-67
2023/06/07 00:39:30;;;;;;;25.00;9.20;;;12.20;99.90;;;;;;5063018;28;20021;-67
2023/06/07 00:41:55;;;;;;;26.58;8.02;;;12.10;99.90;;;;;;5062938;28;20416;-67
2023/06/07 00:44:22;;;;;;;25.08;8.48;;;12.20;99.90;;;;;;5061908;28;20092;-70
2023/06/07 00:46:51;;;;;;;24.27;7.53;;;12.20;99.90;;;;;;5062856;28;20013;-68
2023/06/07 00:49:16;;;;;;;29.23;8.38;;;12.10;99.90;;;;;;5062554;28;20556;-67
2023/06/07 00:51:43;;;;;;;19.42;8.25;;;12.20;99.90;;;;;;5062580;28;20041;-68
2023/06/07 00:54:09;;;;;;;30.52;8.63;;;12.10;99.90;;;;;;5062539;28;20054;-68
2023/06/07 00:56:35;;;;;;;20.70;8.18;;;12.10;99.90;;;;;;5062758;28;20025;-67
2023/06/07 00:59:02;;;;;;;36.97;10.32;;;12.10;99.90;;;;;;5062520;28;20036;-68
2023/06/07 01:01:27;;;;;;;28.67;7.80;;;12.10;99.90;;;;;;5062639;28;20033;-68
2023/06/07 01:03:53;;;;;;;26.10;8.55;;;12.10;99.90;;;;;;5062464;28;20023;-67
2023/06/07 01:06:22;;;;;;;29.33;8.27;;;12.10;99.90;;;;;;5061321;28;20378;-68
2023/06/07 01:08:48;;;;;;;27.67;8.15;;;12.10;99.90;;;;;;5062416;28;20069;-70
2023/06/07 01:11:15;;;;;;;32.67;8.73;;;12.20;99.90;;;;;;5061632;28;20021;-68
2023/06/07 01:13:42;;;;;;;30.20;8.07;;;12.20;99.90;;;;;;5062373;28;20119;-70
2023/06/07 01:16:08;;;;;;;27.63;7.55;;;12.20;99.90;;;;;;5062334;28;20051;-69
2023/06/07 01:18:37;;;;;;;37.28;8.57;;;12.20;99.90;;;;;;5062196;28;20028;-67
2023/06/07 01:21:04;;;;;;;25.50;7.72;;;12.30;99.90;;;;;;5062355;28;20063;-68
2023/06/07 01:23:33;;;;;;;27.67;8.27;;;12.20;99.90;;;;;;5061585;28;20047;-68
2023/06/07 01:26:00;;;;;;;32.63;8.45;;;12.20;99.90;;;;;;5061576;28;20044;-68
2023/06/07 01:28:28;;;;;;;23.55;7.70;;;12.10;99.90;;;;;;5061822;28;20850;-69
2023/06/07 01:30:54;;;;;;;27.83;8.15;;;12.20;99.90;;;;;;5062267;28;20028;-68
2023/06/07 01:33:21;;;;;;;28.98;7.57;;;12.20;99.90;;;;;;5060791;28;20082;-68
2023/06/07 01:35:48;;;;;;;25.90;7.65;;;12.20;99.90;;;;;;5062381;28;20033;-68
2023/06/07 01:38:17;;;;;;;31.05;8.38;;;12.20;99.90;;;;;;5061381;28;20025;-68
2023/06/07 01:40:44;;;;;;;34.30;8.48;;;12.30;99.90;;;;;;5061339;28;20035;-68
2023/06/07 01:43:10;;;;;;;25.40;8.38;;;12.20;99.90;;;;;;5061801;28;20092;-68
2023/06/07 01:45:37;;;;;;;25.50;8.30;;;12.20;99.90;;;;;;5062020;28;20017;-68
2023/06/07 01:48:04;;;;;;;35.40;7.82;;;12.10;99.90;;;;;;5061335;28;20063;-67
2023/06/07 01:50:30;;;;;;;26.23;8.13;;;12.10;99.90;;;;;;5062045;28;20025;-67
2023/06/07 01:52:55;;;;;;;34.50;8.35;;;12.10;99.90;;;;;;5061584;28;20119;-69
2023/06/07 01:55:22;;;;;;;31.35;8.35;;;12.00;99.90;;;;;;5061036;28;20025;-68
2023/06/07 01:58:12;;;;;;;28.80;8.52;;;11.90;99.90;;;;;;5061107;28;20492;-70
2023/06/07 02:01:08;;;;;;;28.83;7.57;;;12.00;99.90;;;;;;5058145;28;20088;-68
2023/06/07 02:03:41;;;;;;;27.60;8.57;;;12.00;99.90;;;;;;5058412;28;20033;-70
2023/06/07 02:06:11;;;;;;;24.13;8.25;;;12.00;99.90;;;;;;5061430;28;20466;-70
2023/06/07 02:08:48;;;;;;;28.35;8.82;;;11.90;99.90;;;;;;5061586;28;20033;-68
2023/06/07 02:11:16;;;;;;;29.92;7.68;;;11.90;99.90;;;;;;5060313;28;20036;-70
2023/06/07 02:13:43;;;;;;;28.25;8.05;;;11.90;99.90;;;;;;5060948;28;20017;-69
2023/06/07 02:16:10;;;;;;;26.50;7.53;;;11.90;99.90;;;;;;5061154;28;20025;-71
2023/06/07 02:18:42;;;;;;;26.05;8.15;;;11.90;99.90;;;;;;5061868;28;20033;-70
2023/06/07 02:21:11;;;;;;;35.35;8.73;;;11.90;99.90;;;;;;5061831;28;20076;-69
2023/06/07 02:23:37;;;;;;;32.33;8.07;;;11.80;99.90;;;;;;5061269;28;20025;-67
2023/06/07 02:26:03;;;;;;;23.60;7.63;;;11.80;99.90;;;;;;5061585;28;20064;-70
2023/06/07 02:28:29;;;;;;;32.13;8.73;;;11.80;99.90;;;;;;5060428;28;20111;-68
2023/06/07 02:30:56;;;;;;;21.67;7.50;;;11.80;99.90;;;;;;5061081;28;20009;-68
2023/06/07 02:33:24;;;;;;;30.83;8.48;;;11.80;99.90;;;;;;5061101;28;20025;-68
2023/06/07 02:35:49;;;;;;;28.77;8.15;;;11.80;99.90;;;;;;5061193;28;20029;-70
2023/06/07 02:38:15;;;;;;;26.65;7.95;;;11.80;99.90;;;;;;5061470;28;20021;-69
2023/06/07 02:40:41;;;;;;;22.23;7.93;;;11.90;99.90;;;;;;5061415;28;20029;-69
2023/06/07 02:43:06;;;;;;;31.25;8.85;;;11.90;99.90;;;;;;5060936;28;20017;-68
2023/06/07 02:45:32;;;;;;;28.40;8.43;;;11.80;99.90;;;;;;5063970;28;20020;-69
2023/06/07 02:47:57;;;;;;;28.73;8.00;;;11.80;99.90;;;;;;5064855;28;20017;-68
2023/06/07 02:50:23;;;;;;;28.77;7.80;;;11.80;99.90;;;;;;5064897;28;20401;-69
2023/06/07 02:52:50;;;;;;;30.65;8.65;;;11.70;99.90;;;;;;5064412;28;20048;-68
2023/06/07 02:55:16;;;;;;;25.90;8.05;;;11.70;99.90;;;;;;5064911;28;20025;-68
2023/06/07 02:57:41;;;;;;;29.48;8.18;;;11.60;99.90;;;;;;5064963;28;20048;-69
2023/06/07 03:00:10;;;;;;;28.08;8.23;;;11.60;99.90;;;;;;5065003;28;20458;-70
2023/06/07 03:02:38;;;;;;;30.90;8.57;;;11.60;99.90;;;;;;5064364;28;20025;-70
2023/06/07 03:05:05;;;;;;;32.47;8.50;;;11.60;99.90;;;;;;5062973;28;20502;-68
2023/06/07 03:07:32;;;;;;;28.88;7.85;;;11.60;99.90;;;;;;5065074;28;20029;-69
2023/06/07 03:09:58;;;;;;;29.95;8.38;;;11.60;99.90;;;;;;5063393;28;20033;-67
2023/06/07 03:12:23;;;;;;;33.88;8.60;;;11.60;99.90;;;;;;5064585;28;20028;-68
2023/06/07 03:14:49;;;;;;;31.15;8.45;;;11.50;99.90;;;;;;5064715;28;20036;-70
2023/06/07 03:17:17;;;;;;;23.98;8.05;;;11.60;99.90;;;;;;5064463;28;20024;-68
2023/06/07 03:19:42;;;;;;;28.30;8.65;;;11.60;99.90;;;;;;5064486;28;20013;-68
2023/06/07 03:22:09;;;;;;;27.00;7.53;;;11.60;99.90;;;;;;5063048;28;20036;-69
2023/06/07 03:24:38;;;;;;;24.35;7.50;;;11.60;99.90;;;;;;5064248;28;20029;-69
2023/06/07 03:27:05;;;;;;;27.45;8.60;;;11.60;99.90;;;;;;5064227;28;20029;-68
2023/06/07 03:29:31;;;;;;;25.13;7.88;;;11.50;99.90;;;;;;5064029;28;20037;-67
2023/06/07 03:31:57;;;;;;;25.48;8.30;;;11.60;99.90;;;;;;5064083;28;20055;-68
2023/06/07 03:34:23;;;;;;;33.83;8.55;;;11.60;99.90;;;;;;5064540;28;20036;-70
2023/06/07 03:36:49;;;;;;;43.03;9.43;;;11.60;99.90;;;;;;5064099;28;20017;-68
2023/06/07 03:39:14;;;;;;;34.42;8.65;;;11.50;99.90;;;;;;5063820;28;20055;-68
2023/06/07 03:41:43;;;;;;;27.17;9.13;;;11.60;99.90;;;;;;5064046;28;20462;-70
2023/06/07 03:44:09;;;;;;;38.50;8.82;;;11.50;99.90;;;;;;5063958;28;20068;-69
2023/06/07 03:46:34;;;;;;;25.00;8.32;;;11.50;99.90;;;;;;5064391;28;20025;-69
2023/06/07 03:49:00;;;;;;;31.48;8.65;;;11.50;99.90;;;;;;5064196;28;20098;-68
2023/06/07 03:51:26;;;;;;;33.17;8.88;;;11.60;99.90;;;;;;5062644;28;20053;-68
2023/06/07 03:53:52;;;;;;;32.20;7.93;;;11.50;99.90;;;;;;5063623;28;20025;-68
2023/06/07 03:56:18;;;;;;;32.60;7.60;;;11.50;99.90;;;;;;5062736;28;21501;-69
2023/06/07 03:58:45;;;;;;;23.73;7.75;;;11.60;99.90;;;;;;5063280;28;20028;-68
2023/06/07 04:01:10;;;;;;;33.63;8.80;;;11.50;99.90;;;;;;5064041;28;20032;-68
2023/06/07 04:03:36;;;;;;;30.45;8.90;;;11.50;99.90;;;;;;5063622;28;20029;-68
2023/06/07 04:06:02;;;;;;;32.42;8.55;;;11.50;99.90;;;;;;5062435;28;20112;-68
2023/06/07 04:08:28;;;;;;;31.25;9.63;;;11.50;99.90;;;;;;5063384;28;20041;-68
2023/06/07 04:10:53;;;;;;;32.78;8.48;;;11.60;99.90;;;;;;5063355;28;20021;-68
2023/06/07 04:13:19;;;;;;;26.02;9.10;;;11.60;99.90;;;;;;5062914;28;20998;-68
2023/06/07 04:15:45;;;;;;;35.42;9.23;;;11.50;99.90;;;;;;5063588;28;20029;-70
2023/06/07 04:18:10;;;;;;;38.72;9.10;;;11.60;99.90;;;;;;5063435;28;20029;-69
2023/06/07 04:20:36;;;;;;;31.20;8.32;;;11.60;99.90;;;;;;5061784;28;20040;-68
2023/06/07 04:23:02;;;;;;;29.73;8.43;;;11.70;99.90;;;;;;5063908;28;20032;-68
2023/06/07 04:25:33;;;;;;;26.77;7.40;;;11.70;99.90;;;;;;5062388;28;20059;-68
2023/06/07 04:28:00;;;;;;;32.78;8.10;;;11.80;99.90;;;;;;5061940;28;20075;-68
2023/06/07 04:30:36;;;;;;;31.55;8.27;;;11.80;99.90;;;;;;5062513;28;20033;-67
2023/06/07 04:33:08;;;;;;;30.65;8.10;;;11.80;99.90;;;;;;5061841;28;20025;-69
2023/06/07 04:35:37;;;;;;;27.25;7.07;;;11.90;99.90;;;;;;5063436;28;20036;-69
2023/06/07 04:38:03;;;;;;;29.05;7.45;;;11.90;99.90;;;;;;5063064;28;20028;-70
2023/06/07 04:40:31;;;;;;;28.75;7.60;;;12.00;99.90;;;;;;5062686;28;20025;-68
2023/06/07 04:43:05;;;;;;;38.50;8.75;;;12.00;99.90;;;;;;5063304;28;20481;-69
2023/06/07 04:45:36;;;;;;;25.40;7.40;;;12.00;99.90;;;;;;5062943;28;20021;-67
2023/06/07 04:48:02;;;;;;;26.17;7.07;;;12.10;99.90;;;;;;5062892;28;20029;-68
2023/06/07 04:50:31;;;;;;;31.67;7.10;;;12.10;99.90;;;;;;5062755;28;20032;-68
2023/06/07 04:53:03;;;;;;;27.65;8.05;;;12.10;99.90;;;;;;5062267;28;20045;-68
2023/06/07 04:55:34;;;;;;;24.65;7.13;;;12.10;99.90;;;;;;5062495;28;20021;-68
2023/06/07 04:58:04;;;;;;;35.25;8.00;;;12.10;99.90;;;;;;5062821;28;20039;-68
2023/06/07 05:00:30;;;;;;;27.45;7.35;;;12.10;99.90;;;;;;5061155;28;20021;-68
2023/06/07 05:02:56;;;;;;;28.63;7.10;;;12.20;99.90;;;;;;5062640;28;20051;-68
2023/06/07 05:05:22;;;;;;;23.05;7.38;;;12.20;99.90;;;;;;5060302;28;20117;-69
2023/06/07 05:07:49;;;;;;;34.03;7.95;;;12.20;99.90;;;;;;5062333;28;20021;-67
2023/06/07 05:10:16;;;;;;;38.22;10.27;;;12.20;99.90;;;;;;5062350;28;20055;-68
2023/06/07 05:12:42;;;;;;;30.70;8.60;;;12.30;99.90;;;;;;5062195;28;20084;-69
2023/06/07 05:15:08;;;;;;;27.60;8.65;;;12.30;99.90;;;;;;5062587;28;20029;-68
2023/06/07 05:17:34;;;;;;;33.40;8.05;;;12.30;99.90;;;;;;5062022;28;20033;-69
2023/06/07 05:20:00;;;;;;;24.15;7.55;;;12.30;99.90;;;;;;5059810;28;20078;-67
2023/06/07 05:22:25;;;;;;;29.45;7.70;;;12.40;99.90;;;;;;5060804;28;20032;-67
2023/06/07 05:24:52;;;;;;;33.72;9.20;;;12.40;99.90;;;;;;5061978;28;20021;-68
2023/06/07 05:27:18;;;;;;;35.05;8.25;;;12.50;99.90;;;;;;5061736;28;20067;-66
2023/06/07 05:29:43;;;;;;;31.67;8.48;;;12.50;99.90;;;;;;5058606;28;20033;-70
2023/06/07 05:32:09;;;;;;;30.77;8.73;;;12.50;99.90;;;;;;5060886;28;20462;-68
2023/06/07 05:34:35;;;;;;;32.42;8.68;;;12.50;99.90;;;;;;5061324;28;20406;-68
2023/06/07 05:37:04;;;;;;;27.63;7.78;;;12.60;99.90;;;;;;5062147;28;20488;-68
2023/06/07 05:39:29;;;;;;;23.00;7.72;;;12.60;99.90;;;;;;5061713;28;20036;-67
2023/06/07 05:41:55;;;;;;;34.85;8.80;;;12.60;99.90;;;;;;5060303;28;20029;-67
2023/06/07 05:44:21;;;;;;;32.53;8.82;;;12.70;99.90;;;;;;5061946;28;20052;-67
2023/06/07 05:46:46;;;;;;;22.27;7.28;;;12.70;99.90;;;;;;5061145;28;20025;-67
2023/06/07 05:49:12;;;;;;;28.67;7.93;;;12.80;99.90;;;;;;5058912;28;20033;-68
2023/06/07 05:51:37;;;;;;;36.53;8.55;;;12.80;99.90;;;;;;5059997;28;20041;-68
2023/06/07 05:54:05;;;;;;;22.63;7.63;;;12.90;99.90;;;;;;5059835;28;20037;-68
2023/06/07 05:56:31;;;;;;;34.00;7.53;;;12.90;99.90;;;;;;5058699;28;20071;-68
2023/06/07 05:58:56;;;;;;;24.30;7.15;;;13.00;99.90;;;;;;5060110;28;20037;-67
2023/06/07 06:01:22;;;;;;;30.02;7.53;;;13.10;99.90;;;;;;5061267;28;20553;-69
2023/06/07 06:03:48;;;;;;;28.25;7.50;;;13.20;99.90;;;;;;5060014;28;20013;-67
2023/06/07 06:06:15;;;;;;;26.20;6.60;;;13.20;99.90;;;;;;5062011;28;20078;-69
2023/06/07 06:08:44;;;;;;;26.02;7.05;;;13.20;99.90;;;;;;5060041;28;20037;-68
2023/06/07 06:11:12;;;;;;;25.58;6.97;;;13.20;99.90;;;;;;5060225;28;20025;-69
2023/06/07 06:13:38;;;;;;;21.10;6.97;;;13.30;99.90;;;;;;5061437;28;20021;-67
2023/06/07 06:16:05;;;;;;;22.67;6.07;;;13.30;99.90;;;;;;5059541;28;20497;-67
2023/06/07 06:18:30;;;;;;;26.58;7.32;;;13.40;99.90;;;;;;5059455;28;20433;-68
2023/06/07 06:20:57;;;;;;;23.27;6.30;;;13.40;99.90;;;;;;5067692;28;20029;-68
2023/06/07 06:23:24;;;;;;;25.55;6.80;;;13.50;99.90;;;;;;5066043;28;20021;-69
2023/06/07 06:25:50;;;;;;;25.40;6.65;;;13.50;99.90;;;;;;5064148;28;20029;-68
2023/06/07 06:28:16;;;;;;;26.40;6.72;;;13.60;99.90;;;;;;5064055;28;20103;-67
2023/06/07 06:30:42;;;;;;;22.63;6.20;;;13.60;99.90;;;;;;5066773;28;20389;-69
2023/06/07 06:33:07;;;;;;;21.15;5.75;;;13.70;99.90;;;;;;5065793;28;20052;-67
2023/06/07 06:35:33;;;;;;;21.67;6.10;;;13.70;99.90;;;;;;5065965;28;20029;-67
2023/06/07 06:37:59;;;;;;;23.27;7.07;;;13.80;99.90;;;;;;5066933;28;20037;-69
2023/06/07 06:40:26;;;;;;;19.08;5.80;;;13.90;99.90;;;;;;5067020;28;20471;-68
2023/06/07 06:42:52;;;;;;;26.55;6.68;;;13.90;99.90;;;;;;5066036;28;20025;-69
2023/06/07 06:45:18;;;;;;;20.08;5.35;;;14.00;99.90;;;;;;5068154;28;20036;-67
2023/06/07 06:47:43;;;;;;;22.23;5.82;;;14.00;99.90;;;;;;5067360;28;21424;-68
2023/06/07 06:50:11;;;;;;;18.10;5.93;;;14.10;99.90;;;;;;5067404;28;20070;-69
2023/06/07 06:52:41;;;;;;;19.98;5.75;;;14.10;99.90;;;;;;5067436;28;20045;-67
2023/06/07 06:55:08;;;;;;;17.98;5.75;;;14.20;99.90;;;;;;5066340;28;20075;-68
2023/06/07 06:57:34;;;;;;;16.20;5.55;;;14.30;99.90;;;;;;5067718;28;20032;-67
2023/06/07 07:00:00;;;;;;;29.90;6.32;;;14.40;99.90;;;;;;5067864;28;20132;-69
2023/06/07 07:02:26;;;;;;;18.67;5.80;;;14.40;99.90;;;;;;5067328;28;20028;-68
2023/06/07 07:04:52;;;;;;;20.45;5.60;;;14.50;99.90;;;;;;5067259;28;20065;-67
2023/06/07 07:07:18;;;;;;;20.70;5.80;;;14.50;99.90;;;;;;5067300;28;20159;-67
2023/06/07 07:09:44;;;;;;;19.17;6.05;;;14.50;99.90;;;;;;5067751;28;20041;-67
2023/06/07 07:12:10;;;;;;;20.85;5.53;;;14.60;99.90;;;;;;5067349;28;20462;-68
2023/06/07 07:14:36;;;;;;;25.92;5.60;;;14.60;99.90;;;;;;5067933;28;20480;-67
2023/06/07 07:17:02;;;;;;;20.48;6.15;;;14.70;99.90;;;;;;5067857;28;20056;-69
2023/06/07 07:19:28;;;;;;;18.52;5.50;;;14.80;99.90;;;;;;5067248;28;20033;-67
2023/06/07 07:21:54;;;;;;;22.75;5.93;;;14.90;99.90;;;;;;5066458;28;20024;-68
2023/06/07 07:24:19;;;;;;;19.92;5.85;;;15.00;99.90;;;;;;5065535;28;20021;-68
2023/06/07 07:26:46;;;;;;;21.35;6.30;;;15.00;99.90;;;;;;5067192;28;20033;-67
2023/06/07 07:29:11;;;;;;;24.70;6.88;;;15.00;99.90;;;;;;5067021;28;20037;-69
2023/06/07 07:31:37;;;;;;;18.85;6.30;;;15.20;99.90;;;;;;5065320;28;20105;-68
2023/06/07 07:34:03;;;;;;;17.52;5.55;;;15.20;99.90;;;;;;5064441;28;20614;-67
2023/06/07 07:36:34;;;;;;;16.70;5.35;;;15.20;99.90;;;;;;5064200;28;20040;-67
2023/06/07 07:39:04;;;;;;;16.73;5.15;;;15.40;99.90;;;;;;5062051;28;20163;-67
2023/06/07 07:41:31;;;;;;;19.48;6.07;;;15.30;99.90;;;;;;5063707;28;20019;-68
2023/06/07 07:43:57;;;;;;;26.10;5.97;;;15.40;99.90;;;;;;5064303;28;20029;-68
2023/06/07 07:46:22;;;;;;;16.05;5.20;;;15.50;99.90;;;;;;5063945;28;20127;-67
2023/06/07 07:48:48;;;;;;;20.48;5.78;;;15.60;99.90;;;;;;5064168;28;20033;-66
2023/06/07 07:51:14;;;;;;;17.98;5.25;;;15.70;99.90;;;;;;5063457;28;20045;-68
2023/06/07 07:53:42;;;;;;;17.27;5.20;;;15.80;99.90;;;;;;5063735;28;20071;-67
2023/06/07 07:56:07;;;;;;;19.63;5.25;;;15.90;99.90;;;;;;5062236;28;20028;-67
2023/06/07 07:58:33;;;;;;;18.38;5.03;;;16.00;99.90;;;;;;5064030;28;20081;-67
2023/06/07 08:00:59;;;;;;;17.40;5.20;;;16.00;99.90;;;;;;5063882;28;20036;-68
2023/06/07 08:03:24;;;;;;;15.65;4.63;;;16.00;99.90;;;;;;5060097;28;20482;-67
2023/06/07 08:05:50;;;;;;;23.67;6.28;;;16.10;99.90;;;;;;5057471;28;20036;-67
2023/06/07 08:08:16;;;;;;;25.13;5.90;;;16.30;99.90;;;;;;5058824;28;20033;-67
2023/06/07 08:10:43;;;;;;;14.40;5.20;;;16.30;99.90;;;;;;5060166;28;20080;-70
2023/06/07 08:13:09;;;;;;;17.98;5.15;;;16.40;99.90;;;;;;5062119;28;20028;-69
2023/06/07 08:15:34;;;;;;;18.17;5.65;;;16.50;99.90;;;;;;5061859;28;20032;-68
2023/06/07 08:18:00;;;;;;;19.48;6.18;;;16.60;99.90;;;;;;5062023;28;20031;-67
2023/06/07 08:20:25;;;;;;;20.63;5.70;;;16.80;99.90;;;;;;5062687;28;20029;-67
2023/06/07 08:22:53;;;;;;;19.17;5.82;;;16.90;99.90;;;;;;5062109;28;20052;-67
2023/06/07 08:25:19;;;;;;;20.25;6.18;;;17.00;99.90;;;;;;5062959;28;20021;-67
2023/06/07 08:27:46;;;;;;;18.35;5.07;;;17.10;99.90;;;;;;5063160;28;20033;-67
2023/06/07 08:30:12;;;;;;;18.80;5.30;;;17.20;99.90;;;;;;5061655;28;20473;-67
2023/06/07 08:32:38;;;;;;;13.48;5.28;;;17.30;99.90;;;;;;5061914;28;20020;-67
2023/06/07 08:35:04;;;;;;;14.55;5.22;;;17.40;99.90;;;;;;5062412;28;20021;-68
2023/06/07 08:37:30;;;;;;;18.45;5.15;;;17.40;99.90;;;;;;5061533;28;20203;-66
2023/06/07 08:39:56;;;;;;;17.65;5.82;;;17.60;99.90;;;;;;5062691;28;20017;-68
2023/06/07 08:42:21;;;;;;;18.23;5.95;;;17.60;99.90;;;;;;5061314;28;20020;-67
2023/06/07 08:44:48;;;;;;;16.13;4.93;;;17.70;99.90;;;;;;5062166;28;20021;-68
2023/06/07 08:47:16;;;;;;;13.07;5.15;;;17.80;99.90;;;;;;5062913;28;20048;-68
2023/06/07 08:49:44;;;;;;;19.10;5.90;;;17.80;99.90;;;;;;5061685;28;20041;-68
2023/06/07 08:52:10;;;;;;;14.70;5.10;;;17.90;99.90;;;;;;5058058;28;20071;-68
2023/06/07 08:54:41;;;;;;;16.45;5.32;;;18.00;99.90;;;;;;5060936;28;20044;-69
2023/06/07 08:57:09;;;;;;;18.40;5.45;;;18.10;99.90;;;;;;5056587;28;20104;-67
2023/06/07 08:59:36;;;;;;;18.60;5.78;;;18.20;99.90;;;;;;5061225;28;20378;-67
2023/06/07 09:02:03;;;;;;;16.95;5.10;;;18.30;99.90;;;;;;5062138;28;20496;-66
2023/06/07 09:04:30;;;;;;;15.35;4.88;;;18.40;99.90;;;;;;5060105;28;20092;-67
2023/06/07 09:06:55;;;;;;;15.30;5.47;;;18.50;99.90;;;;;;5061476;28;20088;-67
2023/06/07 09:09:21;;;;;;;15.45;5.47;;;18.70;99.90;;;;;;5060441;28;20080;-68
2023/06/07 09:11:53;;;;;;;23.67;5.82;;;18.80;99.90;;;;;;5059538;28;20103;-67
2023/06/07 09:14:18;;;;;;;16.65;5.03;;;18.90;99.90;;;;;;5058921;28;20045;-68
2023/06/07 09:16:54;;;;;;;14.98;5.20;;;19.00;99.90;;;;;;5059228;28;20052;-69
2023/06/07 09:19:50;;;;;;;18.38;5.05;;;19.10;99.90;;;;;;5057936;28;20032;-66
2023/06/07 09:22:23;;;;;;;15.63;4.57;;;19.20;99.90;;;;;;5052895;28;20525;-67
2023/06/07 09:24:49;;;;;;;17.33;4.80;;;19.20;99.90;;;;;;5060161;28;20025;-67
2023/06/07 09:27:28;;;;;;;12.45;4.18;;;19.30;99.90;;;;;;5061980;28;20024;-68
2023/06/07 09:30:03;;;;;;;16.23;5.03;;;19.30;99.90;;;;;;5061715;28;20177;-68
2023/06/07 09:32:28;;;;;;;;;;;19.40;99.90;;;;;;5061112;28;20112;-66
2023/06/07 09:35:11;;;;;;;13.77;4.70;;;19.50;99.90;;;;;;5059433;28;19955;-67
2023/06/07 09:37:47;;;;;;;20.00;4.78;;;19.50;99.90;;;;;;5062451;28;20025;-67
2023/06/07 09:40:13;;;;;;;16.58;4.88;;;19.60;99.90;;;;;;5061771;28;20021;-68
2023/06/07 09:42:40;;;;;;;11.80;4.60;;;19.60;99.90;;;;;;5061968;28;20029;-69
2023/06/07 09:45:18;;;;;;;15.00;5.03;;;19.60;99.90;;;;;;5060127;28;20036;-67
2023/06/07 09:47:44;;;;;;;10.50;4.13;;;19.60;99.90;;;;;;5061923;28;20136;-67
2023/06/07 09:50:11;;;;;;;15.20;5.13;;;19.70;99.90;;;;;;5061470;28;20083;-67
2023/06/07 09:52:41;;;;;;;13.23;4.40;;;19.70;99.90;;;;;;5060922;28;20044;-69
2023/06/07 09:55:08;;;;;;;17.90;4.40;;;19.80;99.90;;;;;;5059448;28;20021;-67
2023/06/07 09:57:36;;;;;;;8.82;3.95;;;19.80;99.90;;;;;;5060028;28;20036;-68
2023/06/07 10:00:13;;;;;;;19.42;5.25;;;19.90;99.90;;;;;;5061714;28;20039;-69
2023/06/07 10:02:41;;;;;;;14.13;4.45;;;19.90;99.90;;;;;;5060434;28;20039;-69
2023/06/07 10:05:07;;;;;;;14.35;4.20;;;19.90;99.90;;;;;;5060474;28;20044;-66
2023/06/07 10:07:36;;;;;;;18.10;4.60;;;19.90;99.90;;;;;;5062131;28;20017;-68
2023/06/07 10:10:02;;;;;;;17.73;4.40;;;20.00;99.90;;;;;;5061337;28;20029;-67
2023/06/07 10:12:31;;;;;;;13.32;4.20;;;20.10;99.90;;;;;;5061391;28;20092;-67
2023/06/07 10:15:00;;;;;;;16.67;4.53;;;20.20;99.90;;;;;;5060050;28;20028;-66
2023/06/07 10:17:32;;;;;;;11.70;4.60;;;20.30;99.90;;;;;;5059841;28;20544;-67
2023/06/07 10:20:01;;;;;;;14.45;4.38;;;20.40;99.90;;;;;;5060303;28;20033;-68
2023/06/07 10:22:32;;;;;;;14.40;4.43;;;20.40;99.90;;;;;;5056639;28;20375;-68
2023/06/07 10:25:11;;;;;;;12.52;4.30;;;20.40;99.90;;;;;;5057162;28;20028;-67
2023/06/07 10:28:13;;;;;;;15.13;4.47;;;20.50;99.90;;;;;;5060981;28;20052;-68
2023/06/07 10:30:44;;;;;;;12.57;4.05;;;20.60;99.90;;;;;;5062779;28;20045;-69
2023/06/07 10:33:10;;;;;;;11.88;4.53;;;20.60;99.90;;;;;;5059407;28;20032;-67
2023/06/07 10:35:38;;;;;;;10.40;4.10;;;20.70;99.90;;;;;;5061668;28;20051;-67
2023/06/07 10:38:03;;;;;;;15.43;4.10;;;20.80;99.90;;;;;;5059884;28;20029;-67
2023/06/07 10:40:31;;;;;;;15.00;5.07;;;20.80;99.90;;;;;;5058073;28;20116;-68
2023/06/07 10:42:57;;;;;;;14.43;4.18;;;20.90;99.90;;;;;;5059925;28;20029;-67
2023/06/07 10:45:23;;;;;;;13.23;4.35;;;21.00;99.90;;;;;;5058186;28;20017;-67
2023/06/07 10:47:49;;;;;;;10.75;4.38;;;21.00;99.90;;;;;;5060590;28;20031;-67
2023/06/07 10:50:26;;;;;;;15.88;4.10;;;21.10;99.90;;;;;;5060894;28;20036;-66
2023/06/07 10:53:00;;;;;;;13.63;4.20;;;21.30;99.90;;;;;;5056598;28;20075;-68
2023/06/07 10:55:31;;;;;;;12.10;4.45;;;21.40;99.90;;;;;;5057609;28;20036;-67
2023/06/07 10:57:59;;;;;;;9.63;4.03;;;21.50;99.90;;;;;;5057509;28;20069;-66
2023/06/07 11:00:28;;;;;;;10.98;4.32;;;21.50;99.90;;;;;;5059272;28;20047;-66
2023/06/07 11:03:08;;;;;;;14.98;4.40;;;21.50;99.90;;;;;;5056737;28;20048;-67
2023/06/07 11:06:05;;;;;;;15.18;3.95;;;21.60;99.90;;;;;;5061374;28;20124;-68
2023/06/07 11:08:32;;;;;;;12.90;3.95;;;21.70;99.90;;;;;;5058066;28;20044;-67
2023/06/07 11:11:00;;;;;;;11.65;4.30;;;21.80;99.90;;;;;;5062877;28;20047;-67
2023/06/07 11:13:46;;;;;;;11.52;4.20;;;21.80;99.90;;;;;;5062733;28;20037;-67
2023/06/07 11:16:24;;;;;;;12.00;4.50;;;21.90;99.90;;;;;;5063454;28;20080;-67
2023/06/07 11:18:56;;;;;;;11.52;4.32;;;22.00;99.90;;;;;;5064459;28;20089;-66
2023/06/07 11:21:26;;;;;;;14.38;4.00;;;22.00;99.90;;;;;;5064634;28;20025;-68
2023/06/07 11:24:11;;;;;;;15.88;4.15;;;22.10;99.90;;;;;;5064395;28;20025;-65
2023/06/07 11:26:37;;;;;;;10.88;3.70;;;22.10;99.90;;;;;;5064488;28;20057;-68
2023/06/07 11:29:04;;;;;;;12.07;3.78;;;22.20;99.90;;;;;;5063520;28;20056;-68
2023/06/07 11:31:30;;;;;;;12.20;4.05;;;22.30;99.90;;;;;;5061980;28;20123;-67
2023/06/07 11:33:56;;;;;;;12.65;3.78;;;22.40;99.90;;;;;;5063261;28;20033;-67
2023/06/07 11:36:21;;;;;;;15.98;4.05;;;22.40;99.90;;;;;;5063574;28;20033;-68
2023/06/07 11:38:55;;;;;;;13.35;4.50;;;22.60;99.90;;;;;;5064282;28;20025;-66
2023/06/07 11:41:24;;;;;;;17.35;4.22;;;22.70;99.90;;;;;;5061763;28;20095;-69
2023/06/07 11:43:49;;;;;;;11.27;3.70;;;22.90;99.90;;;;;;5061933;28;20033;-68
2023/06/07 11:46:17;;;;;;;13.10;3.90;;;22.90;99.90;;;;;;5064320;28;20474;-68
2023/06/07 11:48:43;;;;;;;11.52;4.28;;;23.00;99.90;;;;;;5063311;28;20045;-69
2023/06/07 11:51:09;;;;;;;14.50;3.85;;;23.10;99.90;;;;;;5061734;28;20055;-66
2023/06/07 11:53:35;;;;;;;12.18;4.10;;;23.10;99.90;;;;;;5064691;28;20025;-68
2023/06/07 11:56:01;;;;;;;13.93;3.72;;;23.20;99.90;;;;;;5064014;28;20033;-67
2023/06/07 11:58:27;;;;;;;13.95;3.88;;;23.10;99.90;;;;;;5063366;28;20016;-68
2023/06/07 12:00:54;;;;;;;12.45;3.78;;;23.20;99.90;;;;;;5062636;28;20017;-67
2023/06/07 12:03:21;;;;;;;10.23;3.60;;;23.30;99.90;;;;;;5063989;28;20033;-68
2023/06/07 12:05:47;;;;;;;12.35;3.95;;;23.40;99.90;;;;;;5062255;28;20081;-68
2023/06/07 12:08:15;;;;;;;12.35;3.78;;;23.40;99.90;;;;;;5062860;28;20102;-67
2023/06/07 12:10:42;;;;;;;12.30;3.78;;;23.50;99.90;;;;;;5063621;28;20020;-68
2023/06/07 12:13:13;;;;;;;13.65;4.10;;;23.40;99.90;;;;;;5061861;28;20021;-69
2023/06/07 12:15:47;;;;;;;9.05;4.10;;;23.60;99.90;;;;;;5063454;28;20033;-67
2023/06/07 12:18:35;;;;;;;10.13;4.25;;;23.70;99.90;;;;;;5060074;28;20028;-69
2023/06/07 12:21:03;;;;;;;14.57;4.05;;;23.70;99.90;;;;;;5061179;28;20033;-68
2023/06/07 12:23:29;;;;;;;10.40;4.03;;;23.80;99.90;;;;;;5062162;28;20029;-67
2023/06/07 12:26:10;;;;;;;16.35;4.30;;;23.80;99.90;;;;;;5063246;28;20033;-67
2023/06/07 12:28:37;;;;;;;13.00;4.25;;;23.90;99.90;;;;;;5058887;28;20033;-68
2023/06/07 12:31:02;;;;;;;11.70;4.13;;;23.90;99.90;;;;;;5062564;28;20047;-67
2023/06/07 12:33:31;;;;;;;8.40;3.70;;;23.90;99.90;;;;;;5060557;28;20029;-66
2023/06/07 12:36:00;;;;;;;14.70;3.83;;;23.90;99.90;;;;;;5062230;28;20029;-66
2023/06/07 12:38:27;;;;;;;12.88;4.25;;;23.90;99.90;;;;;;5060732;28;20021;-67
2023/06/07 12:40:52;;;;;;;11.10;3.83;;;24.10;99.90;;;;;;5061387;28;20028;-66